As Vega — D5IM3 — position and weather

sailwx.info

Track history (hours):
 
Tides and Currents Weather Stations Pressure Air Temp Water Temp Dewpoint Dewpoint Depression Visibility Wind Speed Wind Dir Waves Ship Positions

As Vega

Last reported at 2018-Jun-18 08:06 UTC. Time now 2018-Jun-20 07:49 UTC.
Position N 10°22' W 075°44'.

Length 194 m; draft 10.7 m.

Type: Ship. MMSI: 538090289.

Date/timePositionNaut miles runAvg speedWind from/ knotsBaromVisibWave heightAir tempDewpointWater temp
2018-Jun-18 08:06N 10°22' W 075°44'215.7
2018-Jun-18 07:59N 10°21' W 075°43'814.9
2018-Jun-18 07:28N 10°19' W 075°35'4 8.8
2018-Jun-18 06:58N 10°21' W 075°32'2 3.9
2018-Jun-18 06:29N 10°23' W 075°31'0 0.0
2018-Jun-18 05:59N 10°23' W 075°31'0 0.0
2018-Jun-18 05:29N 10°23' W 075°31'0 0.0
2018-Jun-18 04:59N 10°23' W 075°31'0 0.0
2018-Jun-18 04:29N 10°23' W 075°31'0 0.0
2018-Jun-18 03:59N 10°23' W 075°31'0 0.0
2018-Jun-18 03:29N 10°23' W 075°31'0 0.0
2018-Jun-18 02:59N 10°23' W 075°31'0 0.0
2018-Jun-18 02:29N 10°23' W 075°31'0 0.0
2018-Jun-18 01:59N 10°23' W 075°31'0 0.0
2018-Jun-18 01:29N 10°23' W 075°31'0 0.0
2018-Jun-18 00:59N 10°23' W 075°31'0 0.0
2018-Jun-18 00:29N 10°23' W 075°31'0 0.0
2018-Jun-17 23:59N 10°23' W 075°31'0 0.0
2018-Jun-17 23:29N 10°23' W 075°31'0 0.0
2018-Jun-17 22:59N 10°23' W 075°31'0 0.0
2018-Jun-17 22:26N 10°23' W 075°31'0 0.0
2018-Jun-17 21:59N 10°23' W 075°31'0 0.0
2018-Jun-17 21:29N 10°23' W 075°31'0 0.0
2018-Jun-17 20:59N 10°23' W 075°31'0 0.0
2018-Jun-17 20:29N 10°23' W 075°31'0 0.0
2018-Jun-17 19:59N 10°23' W 075°31'0 0.0
2018-Jun-17 19:29N 10°23' W 075°31'0 0.0
2018-Jun-17 19:00N 10°23' W 075°31'2 3.1
2018-Jun-17 18:30N 10°22' W 075°32'4 7.4
2018-Jun-17 18:00N 10°19' W 075°34'4 8.9
2018-Jun-17 17:30N 10°20' W 075°39'4 8.3
2018-Jun-17 16:58N 10°21' W 075°43'4112.7
2018-Jun-17 13:44N 10°58' W 075°25'413.5
2018-Jun-17 13:28N 11°01' W 075°23'613.5
2018-Jun-17 13:00N 11°06' W 075°19'913.4
2018-Jun-17 12:20N 11°13' W 075°14'513.4
2018-Jun-17 12:00N 11°17' W 075°11'  
Track history (hours):
 
Tides and Currents Weather Stations Pressure Air Temp Water Temp Dewpoint Dewpoint Depression Visibility Wind Speed Wind Dir Waves Ship Positions

As Vega

Last reported at 2018-Jun-18 08:06 UTC. Time now 2018-Jun-20 07:49 UTC.
Position N 10°22' W 075°44'.

Length 194 m; draft 10.7 m.

Type: Ship. MMSI: 538090289.

Date/timePositionNaut miles runAvg speedWind from/ knotsBaromVisibWave heightAir tempDewpointWater temp
2018-Jun-18 08:06N 10°22' W 075°44'215.7
2018-Jun-18 07:59N 10°21' W 075°43'814.9
2018-Jun-18 07:28N 10°19' W 075°35'4 8.8
2018-Jun-18 06:58N 10°21' W 075°32'2 3.9
2018-Jun-18 06:29N 10°23' W 075°31'0 0.0
2018-Jun-18 05:59N 10°23' W 075°31'0 0.0
2018-Jun-18 05:29N 10°23' W 075°31'0 0.0
2018-Jun-18 04:59N 10°23' W 075°31'0 0.0
2018-Jun-18 04:29N 10°23' W 075°31'0 0.0
2018-Jun-18 03:59N 10°23' W 075°31'0 0.0
2018-Jun-18 03:29N 10°23' W 075°31'0 0.0
2018-Jun-18 02:59N 10°23' W 075°31'0 0.0
2018-Jun-18 02:29N 10°23' W 075°31'0 0.0
2018-Jun-18 01:59N 10°23' W 075°31'0 0.0
2018-Jun-18 01:29N 10°23' W 075°31'0 0.0
2018-Jun-18 00:59N 10°23' W 075°31'0 0.0
2018-Jun-18 00:29N 10°23' W 075°31'0 0.0
2018-Jun-17 23:59N 10°23' W 075°31'0 0.0
2018-Jun-17 23:29N 10°23' W 075°31'0 0.0
2018-Jun-17 22:59N 10°23' W 075°31'0 0.0
2018-Jun-17 22:26N 10°23' W 075°31'0 0.0
2018-Jun-17 21:59N 10°23' W 075°31'0 0.0
2018-Jun-17 21:29N 10°23' W 075°31'0 0.0
2018-Jun-17 20:59N 10°23' W 075°31'0 0.0
2018-Jun-17 20:29N 10°23' W 075°31'0 0.0
2018-Jun-17 19:59N 10°23' W 075°31'0 0.0
2018-Jun-17 19:29N 10°23' W 075°31'0 0.0
2018-Jun-17 19:00N 10°23' W 075°31'2 3.1
2018-Jun-17 18:30N 10°22' W 075°32'4 7.4
2018-Jun-17 18:00N 10°19' W 075°34'4 8.9
2018-Jun-17 17:30N 10°20' W 075°39'4 8.3
2018-Jun-17 16:58N 10°21' W 075°43'4112.7
2018-Jun-17 13:44N 10°58' W 075°25'413.5
2018-Jun-17 13:28N 11°01' W 075°23'613.5
2018-Jun-17 13:00N 11°06' W 075°19'913.4
2018-Jun-17 12:20N 11°13' W 075°14'513.4
2018-Jun-17 12:00N 11°17' W 075°11'  

Dump ship's entire track history